createdAt,value
2023-05-09T00:00:25.723Z,99980.66
2023-05-09T00:02:52.184Z,99978.75
2023-05-09T00:05:18.525Z,99980.72
2023-05-09T00:07:44.900Z,99980.44
2023-05-09T00:10:11.368Z,99982.50
2023-05-09T00:12:37.669Z,99978.38
2023-05-09T00:15:04.019Z,99968.03
2023-05-09T00:17:30.453Z,99968.59
2023-05-09T00:19:56.762Z,99963.00
2023-05-09T00:22:23.112Z,99966.09
2023-05-09T00:24:49.447Z,99972.09
2023-05-09T00:27:15.784Z,99964.50
2023-05-09T00:29:42.176Z,99958.84
2023-05-09T00:32:08.605Z,99957.50
2023-05-09T00:34:35.031Z,99952.63
2023-05-09T00:37:01.422Z,99948.84
2023-05-09T00:39:27.765Z,99956.44
2023-05-09T00:41:54.076Z,99942.63
2023-05-09T00:44:20.479Z,99948.63
2023-05-09T00:46:46.812Z,99945.59
2023-05-09T00:49:13.211Z,99936.94
2023-05-09T00:51:39.551Z,99940.16
2023-05-09T00:54:08.400Z,99938.00
2023-05-09T00:56:35.474Z,99936.38
2023-05-09T00:59:01.859Z,99928.75
2023-05-09T01:01:28.449Z,99936.38
2023-05-09T01:03:54.827Z,99932.00
2023-05-09T01:06:21.288Z,99929.06
2023-05-09T01:08:47.623Z,99932.03
2023-05-09T01:11:14.023Z,99935.31
2023-05-09T01:13:40.645Z,99930.44
2023-05-09T01:16:06.970Z,99935.06
2023-05-09T01:18:33.306Z,99921.25
2023-05-09T01:20:59.695Z,99926.16
2023-05-09T01:23:26.023Z,99920.47
2023-05-09T01:25:52.335Z,99914.53
2023-05-09T01:28:18.773Z,99917.78
2023-05-09T01:30:45.072Z,99920.25
2023-05-09T01:33:11.410Z,99921.63
2023-05-09T01:35:37.891Z,99922.47
2023-05-09T01:38:04.229Z,99913.81
2023-05-09T01:40:30.564Z,99917.44
2023-05-09T01:42:56.923Z,99910.91
2023-05-09T01:45:23.732Z,99920.47
2023-05-09T01:47:50.184Z,99913.41
2023-05-09T01:50:16.924Z,99920.22
2023-05-09T01:52:43.356Z,99915.06
2023-05-09T01:55:09.676Z,99913.47
2023-05-09T01:57:36.061Z,99906.44
2023-05-09T02:00:02.396Z,99908.59
2023-05-09T02:02:39.272Z,99912.66
2023-05-09T02:05:05.814Z,99914.00
2023-05-09T02:07:32.136Z,99910.22
2023-05-09T02:09:58.512Z,99912.91
2023-05-09T02:12:24.863Z,99918.63
2023-05-09T02:14:51.196Z,99911.31
2023-05-09T02:17:17.583Z,99911.88
2023-05-09T02:19:44.005Z,99914.16
2023-05-09T02:22:10.326Z,99914.91
2023-05-09T02:24:36.702Z,99914.09
2023-05-09T02:27:03.048Z,99903.50
2023-05-09T02:29:29.358Z,99904.06
2023-05-09T02:31:55.748Z,99902.22
2023-05-09T02:34:22.430Z,99898.16
2023-05-09T02:36:48.775Z,99907.38
2023-05-09T02:39:15.156Z,99909.03
2023-05-09T02:41:41.474Z,99903.28
2023-05-09T02:44:07.806Z,99911.47
2023-05-09T02:46:34.353Z,99901.69
2023-05-09T02:49:00.762Z,99904.66
2023-05-09T02:51:27.873Z,99892.19
2023-05-09T02:53:54.249Z,99901.38
2023-05-09T02:56:20.611Z,99905.50
2023-05-09T02:58:46.936Z,99894.66
2023-05-09T03:01:13.428Z,99899.53
2023-05-09T03:03:40.008Z,99901.44
2023-05-09T03:06:06.629Z,99912.81
2023-05-09T03:08:32.977Z,99897.91
2023-05-09T03:10:59.348Z,99900.06
2023-05-09T03:13:25.939Z,99906.59
2023-05-09T03:15:52.468Z,99896.84
2023-05-09T03:18:18.837Z,99906.03
2023-05-09T03:20:45.268Z,99904.44
2023-05-09T03:23:11.951Z,99904.16
2023-05-09T03:25:38.367Z,99907.13
2023-05-09T03:28:05.698Z,99904.97
2023-05-09T03:30:32.107Z,99901.75
2023-05-09T03:32:59.042Z,99902.81
2023-05-09T03:35:25.530Z,99903.38
2023-05-09T03:37:54.193Z,99902.56
2023-05-09T03:40:20.572Z,99906.63
2023-05-09T03:42:53.302Z,99905.25
2023-05-09T03:45:19.899Z,99906.06
2023-05-09T03:47:47.169Z,99897.09
2023-05-09T03:50:13.958Z,99902.22
2023-05-09T03:52:40.519Z,99903.31
2023-05-09T03:55:06.958Z,99900.06
2023-05-09T03:57:35.129Z,99900.59
2023-05-09T04:00:01.619Z,99903.03
2023-05-09T04:02:28.162Z,99904.41
2023-05-09T04:04:54.725Z,99902.75
2023-05-09T04:07:22.745Z,99907.38
2023-05-09T04:09:49.217Z,99907.34
2023-05-09T04:12:15.853Z,99906.78
2023-05-09T04:14:42.345Z,99904.88
2023-05-09T04:17:08.979Z,99904.63
2023-05-09T04:19:35.407Z,99908.41
2023-05-09T04:22:02.028Z,99904.63
2023-05-09T04:24:28.638Z,99908.69
2023-05-09T04:26:55.028Z,99901.88
2023-05-09T04:29:23.874Z,99907.56
2023-05-09T04:31:53.705Z,99906.97
2023-05-09T04:34:23.560Z,99904.75
2023-05-09T04:36:50.214Z,99905.44
2023-05-09T04:39:16.786Z,99897.44
2023-05-09T04:41:52.692Z,99899.75
2023-05-09T04:44:19.425Z,99896.66
2023-05-09T04:46:46.138Z,99894.28
2023-05-09T04:49:12.670Z,99900.88
2023-05-09T04:51:39.107Z,99893.53
2023-05-09T04:54:05.603Z,99899.34
2023-05-09T04:56:35.612Z,99899.34
2023-05-09T04:59:02.232Z,99905.38
2023-05-09T05:01:29.319Z,99899.88
2023-05-09T05:03:56.380Z,99898.47
2023-05-09T05:06:22.845Z,99897.22
2023-05-09T05:08:49.242Z,99896.69
2023-05-09T05:11:15.660Z,99898.13
2023-05-09T05:13:42.156Z,99900.53
2023-05-09T05:16:10.366Z,99895.91
2023-05-09T05:18:36.785Z,99900.16
2023-05-09T05:21:03.804Z,99901.41
2023-05-09T05:23:30.136Z,99906.22
2023-05-09T05:25:56.515Z,99907.22
2023-05-09T05:28:23.114Z,99895.34
2023-05-09T05:30:49.484Z,99894.63
2023-05-09T05:33:15.868Z,99893.88
2023-05-09T05:35:42.951Z,99890.69
2023-05-09T05:38:09.967Z,99901.75
2023-05-09T05:40:36.820Z,99898.06
2023-05-09T05:43:05.197Z,99888.06
2023-05-09T05:45:33.255Z,99889.81
2023-05-09T05:48:02.734Z,99881.88
2023-05-09T05:50:30.775Z,99888.88
2023-05-09T05:52:57.232Z,99896.38
2023-05-09T05:55:23.655Z,99885.94
2023-05-09T05:57:50.259Z,99879.88
2023-05-09T06:00:16.612Z,99875.94
2023-05-09T06:02:47.979Z,99876.94
2023-05-09T06:05:22.159Z,99876.53
2023-05-09T06:07:49.915Z,99874.13
2023-05-09T06:10:16.323Z,99877.84
2023-05-09T06:12:43.984Z,99879.31
2023-05-09T06:15:10.489Z,99878.81
2023-05-09T06:17:40.696Z,99859.13
2023-05-09T06:20:07.171Z,99864.44
2023-05-09T06:22:33.631Z,99856.72
2023-05-09T06:25:00.022Z,99858.84
2023-05-09T06:27:26.455Z,99855.81
2023-05-09T06:29:52.937Z,99855.47
2023-05-09T06:32:19.313Z,99857.66
2023-05-09T06:34:45.725Z,99862.31
2023-05-09T06:37:12.168Z,99860.13
2023-05-09T06:39:38.563Z,99861.47
2023-05-09T06:42:04.943Z,99862.28
2023-05-09T06:44:33.607Z,99862.75
2023-05-09T06:46:59.961Z,99860.34
2023-05-09T06:49:26.325Z,99853.66
2023-05-09T06:51:52.712Z,99861.38
2023-05-09T06:54:19.108Z,99851.81
2023-05-09T06:56:45.472Z,99858.16
2023-05-09T06:59:11.879Z,99855.72
2023-05-09T07:01:38.272Z,99849.19
2023-05-09T07:04:04.705Z,99852.97
2023-05-09T07:06:31.113Z,99859.16
2023-05-09T07:08:57.474Z,99849.50
2023-05-09T07:11:23.862Z,99851.00
2023-05-09T07:13:50.302Z,99853.56
2023-05-09T07:16:16.706Z,99849.59
2023-05-09T07:18:43.066Z,99853.56
2023-05-09T07:21:09.485Z,99847.50
2023-05-09T07:23:35.838Z,99839.81
2023-05-09T07:26:02.226Z,99833.72
2023-05-09T07:28:28.627Z,99841.00
2023-05-09T07:30:54.978Z,99829.53
2023-05-09T07:33:21.301Z,99829.00
2023-05-09T07:35:47.723Z,99836.16
2023-05-09T07:38:14.061Z,99826.03
2023-05-09T07:40:40.398Z,99827.88
2023-05-09T07:43:06.946Z,99828.94
2023-05-09T07:45:33.368Z,99830.38
2023-05-09T07:47:59.925Z,99824.84
2023-05-09T07:50:26.430Z,99821.41
2023-05-09T07:52:52.858Z,99820.53
2023-05-09T07:55:21.689Z,99813.84
2023-05-09T07:57:48.093Z,99817.69
2023-05-09T08:00:14.479Z,99823.75
2023-05-09T08:02:41.341Z,99816.91
2023-05-09T08:05:07.804Z,99813.59
2023-05-09T08:07:34.192Z,99813.78
2023-05-09T08:10:00.556Z,99811.56
2023-05-09T08:12:26.966Z,99807.88
2023-05-09T08:14:53.383Z,99811.88
2023-05-09T08:17:19.829Z,99806.28
2023-05-09T08:19:46.334Z,99798.09
2023-05-09T08:22:12.714Z,99798.00
2023-05-09T08:24:39.154Z,99796.38
2023-05-09T08:27:05.555Z,99788.41
2023-05-09T08:29:31.915Z,99786.19
2023-05-09T08:31:58.348Z,99784.63
2023-05-09T08:34:24.774Z,99790.09
2023-05-09T08:36:51.222Z,99790.44
2023-05-09T08:39:17.616Z,99793.81
2023-05-09T08:41:44.009Z,99791.44
2023-05-09T08:44:10.577Z,99795.25
2023-05-09T08:46:36.965Z,99795.41
2023-05-09T08:49:03.434Z,99795.34
2023-05-09T08:51:29.832Z,99796.16
2023-05-09T08:53:56.244Z,99792.50
2023-05-09T08:56:22.655Z,99798.53
2023-05-09T08:58:49.068Z,99792.31
2023-05-09T09:01:15.490Z,99788.38
2023-05-09T09:03:42.005Z,99780.81
2023-05-09T09:06:08.382Z,99781.72
2023-05-09T09:08:34.790Z,99771.56
2023-05-09T09:11:01.233Z,99767.00
2023-05-09T09:13:27.748Z,99772.03
2023-05-09T09:15:54.221Z,99768.44
2023-05-09T09:18:20.771Z,99772.28
2023-05-09T09:20:47.252Z,99763.00
2023-05-09T09:23:13.681Z,99761.59
2023-05-09T09:25:40.072Z,99756.94
2023-05-09T09:28:06.531Z,99762.03
2023-05-09T09:30:32.964Z,99759.44
2023-05-09T09:32:59.482Z,99754.63
2023-05-09T09:35:25.911Z,99763.44
2023-05-09T09:37:52.306Z,99757.13
2023-05-09T09:40:18.717Z,99758.03
2023-05-09T09:42:45.099Z,99754.56
2023-05-09T09:45:11.502Z,99743.72
2023-05-09T09:47:38.003Z,99746.34
2023-05-09T09:50:04.401Z,99753.19
2023-05-09T09:52:30.775Z,99746.94
2023-05-09T09:54:57.212Z,99745.81
2023-05-09T09:57:23.621Z,99747.78
2023-05-09T09:59:50.017Z,99754.94
2023-05-09T10:02:16.439Z,99743.16
2023-05-09T10:04:42.818Z,99745.53
2023-05-09T10:07:10.580Z,99734.94
2023-05-09T10:09:38.218Z,99734.94
2023-05-09T10:12:04.787Z,99734.88
2023-05-09T10:14:32.445Z,99741.88
2023-05-09T10:17:00.129Z,99731.41
2023-05-09T10:19:26.605Z,99726.47
2023-05-09T10:21:52.953Z,99721.91
2023-05-09T10:24:19.332Z,99723.50
2023-05-09T10:26:45.740Z,99710.41
2023-05-09T10:29:12.120Z,99703.25
2023-05-09T10:31:38.596Z,99714.22
2023-05-09T10:34:05.246Z,99709.56
2023-05-09T10:36:31.862Z,99709.25
2023-05-09T10:38:58.336Z,99701.38
2023-05-09T10:41:24.664Z,99702.75
2023-05-09T10:43:51.019Z,99706.03
2023-05-09T10:46:17.510Z,99699.56
2023-05-09T10:48:44.002Z,99701.38
2023-05-09T10:51:10.601Z,99686.63
2023-05-09T10:53:37.035Z,99696.66
2023-05-09T10:56:03.362Z,99687.81
2023-05-09T10:58:29.728Z,99685.59
2023-05-09T11:00:57.263Z,99678.69
2023-05-09T11:03:23.986Z,99679.22
2023-05-09T11:05:50.523Z,99682.09
2023-05-09T11:08:16.936Z,99681.88
2023-05-09T11:10:43.320Z,99677.88
2023-05-09T11:13:09.725Z,99669.38
2023-05-09T11:15:36.233Z,99667.44
2023-05-09T11:18:02.668Z,99666.34
2023-05-09T11:20:29.060Z,99659.69
2023-05-09T11:22:55.468Z,99655.78
2023-05-09T11:25:21.835Z,99653.72
2023-05-09T11:27:48.188Z,99637.88
2023-05-09T11:30:14.790Z,99636.75
2023-05-09T11:32:41.505Z,99638.31
2023-05-09T11:35:07.883Z,99646.16
2023-05-09T11:37:34.371Z,99648.97
2023-05-09T11:40:00.786Z,99637.59
2023-05-09T11:42:27.133Z,99640.81
2023-05-09T11:44:53.623Z,99633.59
2023-05-09T11:47:19.984Z,99624.91
2023-05-09T11:49:46.318Z,99609.88
2023-05-09T11:52:12.795Z,99623.22
2023-05-09T11:54:39.156Z,99621.66
2023-05-09T11:57:05.535Z,99613.00
2023-05-09T11:59:32.055Z,99611.13
2023-05-09T12:01:58.444Z,99616.34
2023-05-09T12:04:24.898Z,99606.78
2023-05-09T12:06:51.368Z,99602.75
2023-05-09T12:09:17.725Z,99590.59
2023-05-09T12:11:44.084Z,99601.22
2023-05-09T12:14:13.533Z,99582.53
2023-05-09T12:16:40.068Z,99586.69
2023-05-09T12:19:06.468Z,99579.28
2023-05-09T12:21:32.885Z,99585.88
2023-05-09T12:23:59.271Z,99572.31
2023-05-09T12:26:25.577Z,99567.84
2023-05-09T12:28:51.965Z,99566.53
2023-05-09T12:31:18.372Z,99565.91
2023-05-09T12:33:44.795Z,99565.66
2023-05-09T12:36:11.367Z,99559.47
2023-05-09T12:38:37.788Z,99557.09
2023-05-09T12:41:04.189Z,99546.47
2023-05-09T12:43:30.606Z,99546.91
2023-05-09T12:45:56.948Z,99537.47
2023-05-09T12:48:23.296Z,99543.53
2023-05-09T12:50:49.728Z,99532.16
2023-05-09T12:53:16.061Z,99534.66
2023-05-09T12:55:42.440Z,99535.16
2023-05-09T12:58:08.850Z,99534.91
2023-05-09T13:00:35.250Z,99529.03
2023-05-09T13:03:01.757Z,99533.91
2023-05-09T13:05:28.264Z,99514.97
2023-05-09T13:07:54.689Z,99512.50
2023-05-09T13:10:21.097Z,99512.09
2023-05-09T13:12:47.513Z,99504.06
2023-05-09T13:15:14.057Z,99506.31
2023-05-09T13:17:40.914Z,99523.44
2023-05-09T13:20:07.391Z,99512.09
2023-05-09T13:22:33.847Z,99499.63
2023-05-09T13:25:00.372Z,99501.00
2023-05-09T13:27:26.834Z,99503.69
2023-05-09T13:29:53.152Z,99494.66
2023-05-09T13:32:19.509Z,99497.13
2023-05-09T13:34:45.932Z,99490.94
2023-05-09T13:37:12.268Z,99495.25
2023-05-09T13:39:38.606Z,99475.22
2023-05-09T13:42:05.104Z,99484.03
2023-05-09T13:44:31.524Z,99473.38
2023-05-09T13:46:57.925Z,99477.06
2023-05-09T13:49:24.394Z,99471.28
2023-05-09T13:51:50.752Z,99462.66
2023-05-09T13:54:17.190Z,99462.72
2023-05-09T13:56:43.724Z,99462.41
2023-05-09T13:59:10.185Z,99456.06
2023-05-09T14:01:36.745Z,99461.66
2023-05-09T14:04:03.415Z,99449.50
2023-05-09T14:06:29.903Z,99451.94
2023-05-09T14:08:56.394Z,99435.03
2023-05-09T14:11:23.013Z,99436.94
2023-05-09T14:13:49.492Z,99442.16
2023-05-09T14:16:15.854Z,99440.16
2023-05-09T14:18:42.347Z,99439.38
2023-05-09T14:21:08.696Z,99432.66
2023-05-09T14:23:35.035Z,99436.22
2023-05-09T14:26:01.646Z,99429.97
2023-05-09T14:28:28.178Z,99437.44
2023-05-09T14:30:54.645Z,99427.97
2023-05-09T14:33:21.199Z,99430.66
2023-05-09T14:35:47.697Z,99428.78
2023-05-09T14:38:14.124Z,99430.66
2023-05-09T14:40:40.504Z,99425.56
2023-05-09T14:43:06.863Z,99426.00
2023-05-09T14:45:33.226Z,99412.19
2023-05-09T14:47:59.661Z,99413.75
2023-05-09T14:50:26.003Z,99400.28
2023-05-09T14:52:52.313Z,99398.31
2023-05-09T14:55:18.671Z,99403.84
2023-05-09T14:57:44.987Z,99397.59
2023-05-09T15:00:20.633Z,99389.59
2023-05-09T15:02:48.697Z,99384.06
2023-05-09T15:05:15.049Z,99388.41
2023-05-09T15:07:41.352Z,99390.38
2023-05-09T15:10:07.908Z,99380.41
2023-05-09T15:12:34.264Z,99380.00
2023-05-09T15:15:00.614Z,99376.84
2023-05-09T15:17:26.970Z,99369.34
2023-05-09T15:19:53.302Z,99371.69
2023-05-09T15:22:19.619Z,99374.03
2023-05-09T15:24:46.038Z,99370.09
2023-05-09T15:27:12.376Z,99362.94
2023-05-09T15:29:38.689Z,99359.38
2023-05-09T15:32:05.119Z,99358.59
2023-05-09T15:34:31.461Z,99359.78
2023-05-09T15:36:57.796Z,99360.16
2023-05-09T15:39:24.193Z,99353.03
2023-05-09T15:41:50.595Z,99355.41
2023-05-09T15:44:16.932Z,99348.72
2023-05-09T15:46:43.515Z,99353.06
2023-05-09T15:49:09.874Z,99346.34
2023-05-09T15:51:36.219Z,99340.81
2023-05-09T15:54:02.577Z,99337.63
2023-05-09T15:56:28.903Z,99343.53
2023-05-09T15:58:55.245Z,99346.75
2023-05-09T16:01:21.710Z,99340.41
2023-05-09T16:03:48.192Z,99334.88
2023-05-09T16:06:14.860Z,99337.63
2023-05-09T16:08:41.266Z,99335.66
2023-05-09T16:11:07.625Z,99325.78
2023-05-09T16:13:35.744Z,99333.25
2023-05-09T16:16:02.603Z,99323.00
2023-05-09T16:18:28.952Z,99318.66
2023-05-09T16:20:55.283Z,99331.34
2023-05-09T16:23:21.766Z,99324.19
2023-05-09T16:25:48.157Z,99319.84
2023-05-09T16:28:14.496Z,99318.91
2023-05-09T16:30:40.859Z,99313.34
2023-05-09T16:33:07.326Z,99311.81
2023-05-09T16:35:33.760Z,99308.72
2023-05-09T16:38:00.178Z,99309.09
2023-05-09T16:40:26.510Z,99291.34
2023-05-09T16:42:52.849Z,99297.66
2023-05-09T16:45:19.319Z,99294.47
2023-05-09T16:47:45.762Z,99286.56
2023-05-09T16:50:12.151Z,99296.09
2023-05-09T16:52:38.648Z,99282.59
2023-05-09T16:55:05.002Z,99274.28
2023-05-09T16:57:31.352Z,99279.81
2023-05-09T16:59:57.719Z,99275.03
2023-05-09T17:02:24.065Z,99274.25
2023-05-09T17:04:50.486Z,99274.25
2023-05-09T17:07:16.912Z,99265.94
2023-05-09T17:09:43.285Z,99269.50
2023-05-09T17:12:09.620Z,99272.66
2023-05-09T17:14:36.069Z,99259.56
2023-05-09T17:17:02.588Z,99269.84
2023-05-09T17:19:28.992Z,99263.91
2023-05-09T17:21:55.471Z,99271.38
2023-05-09T17:24:21.773Z,99272.56
2023-05-09T17:26:48.095Z,99266.63
2023-05-09T17:29:14.522Z,99264.63
2023-05-09T17:31:40.906Z,99268.16
2023-05-09T17:34:07.233Z,99264.97
2023-05-09T17:36:33.826Z,99262.16
2023-05-09T17:39:00.172Z,99263.75
2023-05-09T17:41:26.504Z,99263.34
2023-05-09T17:43:52.868Z,99261.75
2023-05-09T17:46:19.274Z,99256.19
2023-05-09T17:48:45.599Z,99259.69
2023-05-09T17:51:11.998Z,99251.78
2023-05-09T17:53:38.318Z,99257.72
2023-05-09T17:56:04.647Z,99247.78
2023-05-09T17:58:31.013Z,99254.47
2023-05-09T18:00:57.322Z,99258.41
2023-05-09T18:03:23.725Z,99253.66
2023-05-09T18:05:50.221Z,99256.31
2023-05-09T18:08:16.542Z,99251.19
2023-05-09T18:10:42.859Z,99240.88
2023-05-09T18:13:09.335Z,99253.91
2023-05-09T18:15:35.677Z,99254.66
2023-05-09T18:18:02.035Z,99251.16
2023-05-09T18:20:28.426Z,99255.84
2023-05-09T18:22:54.750Z,99253.81
2023-05-09T18:25:21.064Z,99254.06
2023-05-09T18:27:47.435Z,99250.84
2023-05-09T18:30:13.819Z,99251.16
2023-05-09T18:32:40.296Z,99256.59
2023-05-09T18:35:06.673Z,99259.34
2023-05-09T18:37:33.012Z,99268.13
2023-05-09T18:39:59.333Z,99268.63
2023-05-09T18:42:25.715Z,99265.69
2023-05-09T18:44:52.046Z,99260.13
2023-05-09T18:47:18.397Z,99265.63
2023-05-09T18:49:44.963Z,99265.94
2023-05-09T18:52:11.274Z,99266.72
2023-05-09T18:54:37.596Z,99269.25
2023-05-09T18:57:03.965Z,99266.50
2023-05-09T18:59:30.292Z,99266.47
2023-05-09T19:01:56.638Z,99268.16
2023-05-09T19:04:23.135Z,99266.78
2023-05-09T19:06:49.559Z,99263.53
2023-05-09T19:09:15.897Z,99265.47
2023-05-09T19:11:42.278Z,99266.22
2023-05-09T19:14:08.699Z,99272.84
2023-05-09T19:16:35.116Z,99275.22
2023-05-09T19:19:01.542Z,99275.53
2023-05-09T19:21:27.868Z,99275.50
2023-05-09T19:23:54.194Z,99277.00
2023-05-09T19:26:20.609Z,99274.53
2023-05-09T19:28:46.963Z,99274.53
2023-05-09T19:31:13.317Z,99279.19
2023-05-09T19:33:39.680Z,99276.78
2023-05-09T19:36:06.037Z,99278.66
2023-05-09T19:38:32.355Z,99269.56
2023-05-09T19:40:58.716Z,99277.00
2023-05-09T19:43:25.173Z,99281.22
2023-05-09T19:45:51.507Z,99273.69
2023-05-09T19:48:17.933Z,99276.66
2023-05-09T19:50:44.250Z,99279.81
2023-05-09T19:53:10.580Z,99284.84
2023-05-09T19:55:36.938Z,99286.31
2023-05-09T19:58:03.281Z,99282.72
2023-05-09T20:00:29.633Z,99276.72
2023-05-09T20:02:56.074Z,99275.28
2023-05-09T20:05:22.687Z,99274.94
2023-05-09T20:08:09.664Z,99269.28
2023-05-09T20:10:35.967Z,99278.66
2023-05-09T20:13:02.296Z,99276.22
2023-05-09T20:15:28.711Z,99276.25
2023-05-09T20:17:55.079Z,99270.00
2023-05-09T20:20:21.415Z,99280.13
2023-05-09T20:22:47.769Z,99275.78
2023-05-09T20:25:14.100Z,99280.38
2023-05-09T20:27:40.442Z,99284.28
2023-05-09T20:30:06.833Z,99286.81
2023-05-09T20:32:33.177Z,99284.34
2023-05-09T20:34:59.521Z,99287.00
2023-05-09T20:37:25.913Z,99286.03
2023-05-09T20:39:52.294Z,99288.28
2023-05-09T20:42:18.664Z,99283.88
2023-05-09T20:44:45.074Z,99279.44
2023-05-09T20:47:11.400Z,99282.47
2023-05-09T20:49:37.712Z,99282.34
2023-05-09T20:52:04.112Z,99281.03
2023-05-09T20:54:30.430Z,99282.09
2023-05-09T20:56:56.742Z,99284.00
2023-05-09T20:59:23.094Z,99286.16
2023-05-09T21:01:49.403Z,99282.41
2023-05-09T21:04:15.787Z,99282.03
2023-05-09T21:06:42.171Z,99276.88
2023-05-09T21:09:08.477Z,99281.88
2023-05-09T21:11:34.777Z,99273.88
2023-05-09T21:14:01.131Z,99268.66
2023-05-09T21:16:27.446Z,99263.78
2023-05-09T21:18:53.773Z,99271.16
2023-05-09T21:21:20.178Z,99262.38
2023-05-09T21:23:46.485Z,99268.94
2023-05-09T21:26:12.803Z,99260.91
2023-05-09T21:28:39.160Z,99265.53
2023-05-09T21:31:05.560Z,99262.25
2023-05-09T21:33:31.929Z,99266.88
2023-05-09T21:35:58.300Z,99263.59
2023-05-09T21:38:24.621Z,99265.03
2023-05-09T21:40:50.929Z,99263.31
2023-05-09T21:43:17.289Z,99261.66
2023-05-09T21:45:43.610Z,99269.00
2023-05-09T21:48:09.964Z,99270.41
2023-05-09T21:50:36.343Z,99268.34
2023-05-09T21:53:02.662Z,99255.22
2023-05-09T21:55:28.977Z,99268.34
2023-05-09T21:57:55.351Z,99255.41
2023-05-09T22:00:21.663Z,99262.75
2023-05-09T22:02:48.129Z,99263.34
2023-05-09T22:05:14.555Z,99257.38
2023-05-09T22:07:40.889Z,99256.13
2023-05-09T22:10:07.216Z,99254.00
2023-05-09T22:12:33.575Z,99257.09
2023-05-09T22:14:59.889Z,99260.06
2023-05-09T22:17:26.227Z,99253.69
2023-05-09T22:19:52.612Z,99250.38
2023-05-09T22:22:18.936Z,99247.88
2023-05-09T22:24:45.240Z,99246.09
2023-05-09T22:27:11.603Z,99245.19
2023-05-09T22:29:37.977Z,99249.00
2023-05-09T22:32:04.506Z,99245.00
2023-05-09T22:34:30.975Z,99246.38
2023-05-09T22:36:57.297Z,99239.53
2023-05-09T22:39:25.006Z,99235.78
2023-05-09T22:41:51.367Z,99237.97
2023-05-09T22:44:17.681Z,99242.06
2023-05-09T22:46:44.016Z,99236.00
2023-05-09T22:49:10.388Z,99230.88
2023-05-09T22:51:36.712Z,99238.97
2023-05-09T22:54:03.115Z,99242.31
2023-05-09T22:56:29.491Z,99241.31
2023-05-09T22:58:55.847Z,99235.56
2023-05-09T23:01:22.218Z,99236.06
2023-05-09T23:03:48.677Z,99235.59
2023-05-09T23:06:15.005Z,99230.00
2023-05-09T23:08:41.395Z,99221.19
2023-05-09T23:11:07.816Z,99223.69
2023-05-09T23:13:34.282Z,99223.00
2023-05-09T23:16:00.762Z,99220.63
2023-05-09T23:18:27.317Z,99211.81
2023-05-09T23:20:53.650Z,99224.56
2023-05-09T23:23:19.966Z,99225.59
2023-05-09T23:25:46.339Z,99213.72
2023-05-09T23:28:12.671Z,99210.84
2023-05-09T23:30:39.003Z,99214.13
2023-05-09T23:33:05.389Z,99216.75
2023-05-09T23:35:31.735Z,99215.38
2023-05-09T23:37:58.054Z,99205.09
2023-05-09T23:40:24.415Z,99206.09
2023-05-09T23:42:50.734Z,99206.00
2023-05-09T23:45:17.069Z,99207.81
2023-05-09T23:47:43.480Z,99202.19
2023-05-09T23:50:09.810Z,99198.53
2023-05-09T23:52:36.143Z,99198.41
2023-05-09T23:55:02.544Z,99196.69
2023-05-09T23:57:28.875Z,99189.81
2023-05-09T23:59:55.192Z,99194.69
